sensor_id;sensor_type;location;lat;lon;timestamp;P1;P2;P0
72031;PMS5003;49185;42.320;23.198;2023-11-21T00:02:25;2695.33;2695.33;2695.33
72031;PMS5003;49185;42.320;23.198;2023-11-21T00:04:50;2699.00;2699.00;2699.00
72031;PMS5003;49185;42.320;23.198;2023-11-21T00:07:16;2695.33;2695.33;2695.33
72031;PMS5003;49185;42.320;23.198;2023-11-21T00:09:41;2694.00;2694.00;2694.00
72031;PMS5003;49185;42.320;23.198;2023-11-21T00:12:07;2691.00;2691.00;2691.00
72031;PMS5003;49185;42.320;23.198;2023-11-21T00:14:33;2679.00;2679.00;2679.00
72031;PMS5003;49185;42.320;23.198;2023-11-21T00:16:58;2680.67;2680.67;2680.67
72031;PMS5003;49185;42.320;23.198;2023-11-21T00:19:24;2666.67;2666.67;2666.67
72031;PMS5003;49185;42.320;23.198;2023-11-21T00:21:49;2664.67;2664.67;2664.67
72031;PMS5003;49185;42.320;23.198;2023-11-21T00:24:15;2675.00;2675.00;2675.00
72031;PMS5003;49185;42.320;23.198;2023-11-21T00:26:40;2660.00;2660.00;2660.00
72031;PMS5003;49185;42.320;23.198;2023-11-21T00:29:05;2658.00;2658.00;2658.00
72031;PMS5003;49185;42.320;23.198;2023-11-21T00:31:31;2664.67;2664.67;2664.67
72031;PMS5003;49185;42.320;23.198;2023-11-21T00:33:56;2663.67;2663.67;2663.67
72031;PMS5003;49185;42.320;23.198;2023-11-21T00:36:21;2647.67;2647.67;2647.67
72031;PMS5003;49185;42.320;23.198;2023-11-21T00:38:47;2649.67;2649.67;2649.67
72031;PMS5003;49185;42.320;23.198;2023-11-21T00:41:12;2646.67;2646.67;2646.67
72031;PMS5003;49185;42.320;23.198;2023-11-21T00:43:38;2654.00;2654.00;2654.00
72031;PMS5003;49185;42.320;23.198;2023-11-21T00:46:04;2646.67;2646.67;2646.67
72031;PMS5003;49185;42.320;23.198;2023-11-21T00:48:29;2660.00;2660.00;2660.00
72031;PMS5003;49185;42.320;23.198;2023-11-21T00:50:55;2644.00;2644.00;2644.00
72031;PMS5003;49185;42.320;23.198;2023-11-21T00:53:20;2654.00;2654.00;2654.00
72031;PMS5003;49185;42.320;23.198;2023-11-21T00:55:46;2655.33;2655.33;2655.33
72031;PMS5003;49185;42.320;23.198;2023-11-21T00:58:11;2654.00;2654.00;2654.00
72031;PMS5003;49185;42.320;23.198;2023-11-21T01:00:36;2656.67;2656.67;2656.67
72031;PMS5003;49185;42.320;23.198;2023-11-21T01:03:02;2653.00;2653.00;2653.00
72031;PMS5003;49185;42.320;23.198;2023-11-21T01:05:27;2637.67;2637.67;2637.67
72031;PMS5003;49185;42.320;23.198;2023-11-21T01:07:53;2651.00;2651.00;2651.00
72031;PMS5003;49185;42.320;23.198;2023-11-21T01:10:18;2641.00;2641.00;2641.00
72031;PMS5003;49185;42.320;23.198;2023-11-21T01:12:43;2651.00;2651.00;2651.00
72031;PMS5003;49185;42.320;23.198;2023-11-21T01:15:09;2658.00;2658.00;2658.00
72031;PMS5003;49185;42.320;23.198;2023-11-21T01:17:34;2646.67;2646.67;2646.67
72031;PMS5003;49185;42.320;23.198;2023-11-21T01:20:01;2651.00;2651.00;2651.00
72031;PMS5003;49185;42.320;23.198;2023-11-21T01:22:27;2645.00;2645.00;2645.00
72031;PMS5003;49185;42.320;23.198;2023-11-21T01:24:53;2658.00;2658.00;2658.00
72031;PMS5003;49185;42.320;23.198;2023-11-21T01:27:19;2651.50;2651.50;2651.50
72031;PMS5003;49185;42.320;23.198;2023-11-21T01:29:44;2648.00;2648.00;2648.00
72031;PMS5003;49185;42.320;23.198;2023-11-21T01:32:10;2658.00;2658.00;2658.00
72031;PMS5003;49185;42.320;23.198;2023-11-21T01:34:36;2663.50;2663.50;2663.50
72031;PMS5003;49185;42.320;23.198;2023-11-21T01:37:02;2650.00;2650.00;2650.00
72031;PMS5003;49185;42.320;23.198;2023-11-21T01:39:28;2648.00;2648.00;2648.00
72031;PMS5003;49185;42.320;23.198;2023-11-21T01:41:53;2658.00;2658.00;2658.00
72031;PMS5003;49185;42.320;23.198;2023-11-21T01:44:18;2643.00;2643.00;2643.00
72031;PMS5003;49185;42.320;23.198;2023-11-21T01:46:44;2651.00;2651.00;2651.00
72031;PMS5003;49185;42.320;23.198;2023-11-21T01:49:10;2656.50;2656.50;2656.50
72031;PMS5003;49185;42.320;23.198;2023-11-21T01:51:36;2639.67;2639.67;2639.67
72031;PMS5003;49185;42.320;23.198;2023-11-21T01:54:02;2656.50;2656.50;2656.50
72031;PMS5003;49185;42.320;23.198;2023-11-21T01:56:27;2658.00;2658.00;2658.00
72031;PMS5003;49185;42.320;23.198;2023-11-21T01:58:53;2644.00;2644.00;2644.00
72031;PMS5003;49185;42.320;23.198;2023-11-21T02:01:18;2641.00;2641.00;2641.00
72031;PMS5003;49185;42.320;23.198;2023-11-21T02:03:44;2643.00;2643.00;2643.00
72031;PMS5003;49185;42.320;23.198;2023-11-21T02:06:09;2654.00;2654.00;2654.00
72031;PMS5003;49185;42.320;23.198;2023-11-21T02:08:34;2643.00;2643.00;2643.00
72031;PMS5003;49185;42.320;23.198;2023-11-21T02:11:00;2658.00;2658.00;2658.00
72031;PMS5003;49185;42.320;23.198;2023-11-21T02:13:25;2644.00;2644.00;2644.00
72031;PMS5003;49185;42.320;23.198;2023-11-21T02:15:50;2641.00;2641.00;2641.00
72031;PMS5003;49185;42.320;23.198;2023-11-21T02:18:16;2637.67;2637.67;2637.67
72031;PMS5003;49185;42.320;23.198;2023-11-21T02:20:41;2639.67;2639.67;2639.67
72031;PMS5003;49185;42.320;23.198;2023-11-21T02:23:07;2632.67;2632.67;2632.67
72031;PMS5003;49185;42.320;23.198;2023-11-21T02:25:32;2634.00;2634.00;2634.00
72031;PMS5003;49185;42.320;23.198;2023-11-21T02:27:59;2650.00;2650.00;2650.00
72031;PMS5003;49185;42.320;23.198;2023-11-21T02:30:25;2651.50;2651.50;2651.50
72031;PMS5003;49185;42.320;23.198;2023-11-21T02:32:51;2645.00;2645.00;2645.00
72031;PMS5003;49185;42.320;23.198;2023-11-21T02:35:17;2660.00;2660.00;2660.00
72031;PMS5003;49185;42.320;23.198;2023-11-21T02:37:42;2661.00;2661.00;2661.00
72031;PMS5003;49185;42.320;23.198;2023-11-21T02:40:09;2664.67;2664.67;2664.67
72031;PMS5003;49185;42.320;23.198;2023-11-21T02:42:35;2668.50;2668.50;2668.50
72031;PMS5003;49185;42.320;23.198;2023-11-21T02:45:00;2671.00;2671.00;2671.00
72031;PMS5003;49185;42.320;23.198;2023-11-21T02:47:26;2675.00;2675.00;2675.00
72031;PMS5003;49185;42.320;23.198;2023-11-21T02:49:51;2664.67;2664.67;2664.67
72031;PMS5003;49185;42.320;23.198;2023-11-21T02:52:16;2682.00;2682.00;2682.00
72031;PMS5003;49185;42.320;23.198;2023-11-21T02:54:42;2682.00;2682.00;2682.00
72031;PMS5003;49185;42.320;23.198;2023-11-21T02:57:07;2685.00;2685.00;2685.00
72031;PMS5003;49185;42.320;23.198;2023-11-21T02:59:33;2687.00;2687.00;2687.00
72031;PMS5003;49185;42.320;23.198;2023-11-21T03:01:58;2687.00;2687.00;2687.00
72031;PMS5003;49185;42.320;23.198;2023-11-21T03:04:23;2675.00;2675.00;2675.00
72031;PMS5003;49185;42.320;23.198;2023-11-21T03:06:49;2677.00;2677.00;2677.00
72031;PMS5003;49185;42.320;23.198;2023-11-21T03:09:14;2678.00;2678.00;2678.00
72031;PMS5003;49185;42.320;23.198;2023-11-21T03:11:39;2691.00;2691.00;2691.00
72031;PMS5003;49185;42.320;23.198;2023-11-21T03:14:05;2682.00;2682.00;2682.00
72031;PMS5003;49185;42.320;23.198;2023-11-21T03:16:31;2682.00;2682.00;2682.00
72031;PMS5003;49185;42.320;23.198;2023-11-21T03:18:57;2687.50;2687.50;2687.50
72031;PMS5003;49185;42.320;23.198;2023-11-21T03:21:23;2692.00;2692.00;2692.00
72031;PMS5003;49185;42.320;23.198;2023-11-21T03:23:48;2688.33;2688.33;2688.33
72031;PMS5003;49185;42.320;23.198;2023-11-21T03:26:13;2677.00;2677.00;2677.00
72031;PMS5003;49185;42.320;23.198;2023-11-21T03:28:39;2685.00;2685.00;2685.00
72031;PMS5003;49185;42.320;23.198;2023-11-21T03:31:04;2678.00;2678.00;2678.00
72031;PMS5003;49185;42.320;23.198;2023-11-21T03:33:30;2680.50;2680.50;2680.50
72031;PMS5003;49185;42.320;23.198;2023-11-21T03:35:56;2664.67;2664.67;2664.67
72031;PMS5003;49185;42.320;23.198;2023-11-21T03:38:21;2673.67;2673.67;2673.67
72031;PMS5003;49185;42.320;23.198;2023-11-21T03:40:46;2661.00;2661.00;2661.00
72031;PMS5003;49185;42.320;23.198;2023-11-21T03:43:12;2658.00;2658.00;2658.00
72031;PMS5003;49185;42.320;23.198;2023-11-21T03:45:38;2667.00;2667.00;2667.00
72031;PMS5003;49185;42.320;23.198;2023-11-21T03:48:03;2661.00;2661.00;2661.00
72031;PMS5003;49185;42.320;23.198;2023-11-21T03:50:29;2661.00;2661.00;2661.00
72031;PMS5003;49185;42.320;23.198;2023-11-21T03:52:54;2649.67;2649.67;2649.67
72031;PMS5003;49185;42.320;23.198;2023-11-21T03:55:20;2647.67;2647.67;2647.67
72031;PMS5003;49185;42.320;23.198;2023-11-21T03:57:45;2643.00;2643.00;2643.00
72031;PMS5003;49185;42.320;23.198;2023-11-21T04:00:11;2643.00;2643.00;2643.00
72031;PMS5003;49185;42.320;23.198;2023-11-21T04:02:36;2643.00;2643.00;2643.00
72031;PMS5003;49185;42.320;23.198;2023-11-21T04:05:02;2641.00;2641.00;2641.00
72031;PMS5003;49185;42.320;23.198;2023-11-21T04:07:28;2639.67;2639.67;2639.67
72031;PMS5003;49185;42.320;23.198;2023-11-21T04:09:53;2649.67;2649.67;2649.67
72031;PMS5003;49185;42.320;23.198;2023-11-21T04:12:18;2639.67;2639.67;2639.67
72031;PMS5003;49185;42.320;23.198;2023-11-21T04:14:44;2641.50;2641.50;2641.50
72031;PMS5003;49185;42.320;23.198;2023-11-21T04:17:09;2632.67;2632.67;2632.67
72031;PMS5003;49185;42.320;23.198;2023-11-21T04:19:35;2634.00;2634.00;2634.00
72031;PMS5003;49185;42.320;23.198;2023-11-21T04:22:00;2636.67;2636.67;2636.67
72031;PMS5003;49185;42.320;23.198;2023-11-21T04:24:26;2636.67;2636.67;2636.67
72031;PMS5003;49185;42.320;23.198;2023-11-21T04:26:51;2644.00;2644.00;2644.00
72031;PMS5003;49185;42.320;23.198;2023-11-21T04:29:16;2645.67;2645.67;2645.67
72031;PMS5003;49185;42.320;23.198;2023-11-21T04:31:42;2644.00;2644.00;2644.00
72031;PMS5003;49185;42.320;23.198;2023-11-21T04:34:07;2649.67;2649.67;2649.67
72031;PMS5003;49185;42.320;23.198;2023-11-21T04:36:32;2651.00;2651.00;2651.00
72031;PMS5003;49185;42.320;23.198;2023-11-21T04:38:58;2639.67;2639.67;2639.67
72031;PMS5003;49185;42.320;23.198;2023-11-21T04:41:23;2639.67;2639.67;2639.67
72031;PMS5003;49185;42.320;23.198;2023-11-21T04:43:49;2636.67;2636.67;2636.67
72031;PMS5003;49185;42.320;23.198;2023-11-21T04:46:14;2651.00;2651.00;2651.00
72031;PMS5003;49185;42.320;23.198;2023-11-21T04:48:39;2637.67;2637.67;2637.67
72031;PMS5003;49185;42.320;23.198;2023-11-21T04:51:05;2637.67;2637.67;2637.67
72031;PMS5003;49185;42.320;23.198;2023-11-21T04:53:30;2651.00;2651.00;2651.00
72031;PMS5003;49185;42.320;23.198;2023-11-21T04:55:56;2639.67;2639.67;2639.67
72031;PMS5003;49185;42.320;23.198;2023-11-21T04:58:21;2651.00;2651.00;2651.00
72031;PMS5003;49185;42.320;23.198;2023-11-21T05:00:46;2641.00;2641.00;2641.00
72031;PMS5003;49185;42.320;23.198;2023-11-21T05:03:12;2641.00;2641.00;2641.00
72031;PMS5003;49185;42.320;23.198;2023-11-21T05:05:37;2643.00;2643.00;2643.00
72031;PMS5003;49185;42.320;23.198;2023-11-21T05:08:02;2651.00;2651.00;2651.00
72031;PMS5003;49185;42.320;23.198;2023-11-21T05:10:28;2639.67;2639.67;2639.67
72031;PMS5003;49185;42.320;23.198;2023-11-21T05:12:54;2648.00;2648.00;2648.00
72031;PMS5003;49185;42.320;23.198;2023-11-21T05:15:20;2644.00;2644.00;2644.00
72031;PMS5003;49185;42.320;23.198;2023-11-21T05:17:45;2641.00;2641.00;2641.00
72031;PMS5003;49185;42.320;23.198;2023-11-21T05:20:14;2629.67;2629.67;2629.67
72031;PMS5003;49185;42.320;23.198;2023-11-21T05:22:40;2631.50;2631.50;2631.50
72031;PMS5003;49185;42.320;23.198;2023-11-21T05:25:05;2630.00;2630.00;2630.00
72031;PMS5003;49185;42.320;23.198;2023-11-21T05:27:31;2641.50;2641.50;2641.50
72031;PMS5003;49185;42.320;23.198;2023-11-21T05:29:56;2629.67;2629.67;2629.67
72031;PMS5003;49185;42.320;23.198;2023-11-21T05:32:23;2646.67;2646.67;2646.67
72031;PMS5003;49185;42.320;23.198;2023-11-21T05:34:49;2648.00;2648.00;2648.00
72031;PMS5003;49185;42.320;23.198;2023-11-21T05:37:15;2647.67;2647.67;2647.67
72031;PMS5003;49185;42.320;23.198;2023-11-21T05:39:40;2637.67;2637.67;2637.67
72031;PMS5003;49185;42.320;23.198;2023-11-21T05:42:05;2653.00;2653.00;2653.00
72031;PMS5003;49185;42.320;23.198;2023-11-21T05:44:31;2644.00;2644.00;2644.00
72031;PMS5003;49185;42.320;23.198;2023-11-21T05:46:56;2641.00;2641.00;2641.00
72031;PMS5003;49185;42.320;23.198;2023-11-21T05:49:21;2661.00;2661.00;2661.00
72031;PMS5003;49185;42.320;23.198;2023-11-21T05:51:47;2651.00;2651.00;2651.00
72031;PMS5003;49185;42.320;23.198;2023-11-21T05:54:12;2649.67;2649.67;2649.67
72031;PMS5003;49185;42.320;23.198;2023-11-21T05:56:38;2666.67;2666.67;2666.67
72031;PMS5003;49185;42.320;23.198;2023-11-21T05:59:03;2671.00;2671.00;2671.00
72031;PMS5003;49185;42.320;23.198;2023-11-21T06:01:29;2658.00;2658.00;2658.00
72031;PMS5003;49185;42.320;23.198;2023-11-21T06:03:54;2664.67;2664.67;2664.67
72031;PMS5003;49185;42.320;23.198;2023-11-21T06:06:20;2664.67;2664.67;2664.67
72031;PMS5003;49185;42.320;23.198;2023-11-21T06:08:46;2686.00;2686.00;2686.00
72031;PMS5003;49185;42.320;23.198;2023-11-21T06:11:11;2673.67;2673.67;2673.67
72031;PMS5003;49185;42.320;23.198;2023-11-21T06:13:37;2677.00;2677.00;2677.00
72031;PMS5003;49185;42.320;23.198;2023-11-21T06:16:02;2688.33;2688.33;2688.33
72031;PMS5003;49185;42.320;23.198;2023-11-21T06:18:27;2691.00;2691.00;2691.00
72031;PMS5003;49185;42.320;23.198;2023-11-21T06:20:53;2678.00;2678.00;2678.00
72031;PMS5003;49185;42.320;23.198;2023-11-21T06:23:18;2692.00;2692.00;2692.00
72031;PMS5003;49185;42.320;23.198;2023-11-21T06:25:43;2694.00;2694.00;2694.00
72031;PMS5003;49185;42.320;23.198;2023-11-21T06:28:09;2701.00;2701.00;2701.00
72031;PMS5003;49185;42.320;23.198;2023-11-21T06:30:34;2691.00;2691.00;2691.00
72031;PMS5003;49185;42.320;23.198;2023-11-21T06:33:00;2709.33;2709.33;2709.33
72031;PMS5003;49185;42.320;23.198;2023-11-21T06:35:25;2702.33;2702.33;2702.33
72031;PMS5003;49185;42.320;23.198;2023-11-21T06:37:50;2720.33;2720.33;2720.33
72031;PMS5003;49185;42.320;23.198;2023-11-21T06:40:16;2705.00;2705.00;2705.00
72031;PMS5003;49185;42.320;23.198;2023-11-21T06:42:42;2733.50;2733.50;2733.50
72031;PMS5003;49185;42.320;23.198;2023-11-21T06:45:08;2723.33;2723.33;2723.33
72031;PMS5003;49185;42.320;23.198;2023-11-21T06:47:33;2741.67;2741.67;2741.67
72031;PMS5003;49185;42.320;23.198;2023-11-21T06:49:59;2737.00;2737.00;2737.00
72031;PMS5003;49185;42.320;23.198;2023-11-21T06:52:24;2747.33;2747.33;2747.33
72031;PMS5003;49185;42.320;23.198;2023-11-21T06:54:50;2752.67;2752.67;2752.67
72031;PMS5003;49185;42.320;23.198;2023-11-21T06:57:15;2780.67;2780.67;2780.67
72031;PMS5003;49185;42.320;23.198;2023-11-21T06:59:41;2785.67;2785.67;2785.67
72031;PMS5003;49185;42.320;23.198;2023-11-21T07:02:06;2794.00;2794.00;2794.00
72031;PMS5003;49185;42.320;23.198;2023-11-21T07:04:32;2800.67;2800.67;2800.67
72031;PMS5003;49185;42.320;23.198;2023-11-21T07:07:02;2795.50;2795.50;2795.50
72031;PMS5003;49185;42.320;23.198;2023-11-21T07:09:28;2820.50;2820.50;2820.50
72031;PMS5003;49185;42.320;23.198;2023-11-21T07:11:53;2800.67;2800.67;2800.67
72031;PMS5003;49185;42.320;23.198;2023-11-21T07:14:19;2837.67;2837.67;2837.67
72031;PMS5003;49185;42.320;23.198;2023-11-21T07:16:44;2827.00;2827.00;2827.00
72031;PMS5003;49185;42.320;23.198;2023-11-21T07:19:10;2851.50;2851.50;2851.50
72031;PMS5003;49185;42.320;23.198;2023-11-21T07:21:36;2833.67;2833.67;2833.67
72031;PMS5003;49185;42.320;23.198;2023-11-21T07:24:04;2853.00;2853.00;2853.00
72031;PMS5003;49185;42.320;23.198;2023-11-21T07:26:31;2839.50;2839.50;2839.50
72031;PMS5003;49185;42.320;23.198;2023-11-21T07:28:58;2867.00;2867.00;2867.00
72031;PMS5003;49185;42.320;23.198;2023-11-21T07:31:23;2853.00;2853.00;2853.00
72031;PMS5003;49185;42.320;23.198;2023-11-21T07:33:48;2854.33;2854.33;2854.33
72031;PMS5003;49185;42.320;23.198;2023-11-21T07:36:15;2883.00;2883.00;2883.00
72031;PMS5003;49185;42.320;23.198;2023-11-21T07:38:43;2879.00;2879.00;2879.00
72031;PMS5003;49185;42.320;23.198;2023-11-21T07:41:10;2899.00;2899.00;2899.00
72031;PMS5003;49185;42.320;23.198;2023-11-21T07:43:36;2899.00;2899.00;2899.00
72031;PMS5003;49185;42.320;23.198;2023-11-21T07:46:02;2877.00;2877.00;2877.00
72031;PMS5003;49185;42.320;23.198;2023-11-21T07:48:28;2873.00;2873.00;2873.00
72031;PMS5003;49185;42.320;23.198;2023-11-21T07:50:54;2873.00;2873.00;2873.00
72031;PMS5003;49185;42.320;23.198;2023-11-21T07:53:19;2870.33;2870.33;2870.33
72031;PMS5003;49185;42.320;23.198;2023-11-21T07:55:45;2885.00;2885.00;2885.00
72031;PMS5003;49185;42.320;23.198;2023-11-21T07:58:10;2869.00;2869.00;2869.00
72031;PMS5003;49185;42.320;23.198;2023-11-21T08:00:35;2866.33;2866.33;2866.33
72031;PMS5003;49185;42.320;23.198;2023-11-21T08:03:01;2861.00;2861.00;2861.00
72031;PMS5003;49185;42.320;23.198;2023-11-21T08:05:26;2870.33;2870.33;2870.33
72031;PMS5003;49185;42.320;23.198;2023-11-21T08:07:52;2895.67;2895.67;2895.67
72031;PMS5003;49185;42.320;23.198;2023-11-21T08:10:17;2885.00;2885.00;2885.00
72031;PMS5003;49185;42.320;23.198;2023-11-21T08:12:42;2905.00;2905.00;2905.00
72031;PMS5003;49185;42.320;23.198;2023-11-21T08:15:08;2914.33;2914.33;2914.33
72031;PMS5003;49185;42.320;23.198;2023-11-21T08:17:34;2887.00;2887.00;2887.00
72031;PMS5003;49185;42.320;23.198;2023-11-21T08:20:00;2921.00;2921.00;2921.00
72031;PMS5003;49185;42.320;23.198;2023-11-21T08:22:25;2921.33;2921.33;2921.33
72031;PMS5003;49185;42.320;23.198;2023-11-21T08:24:50;2913.00;2913.00;2913.00
72031;PMS5003;49185;42.320;23.198;2023-11-21T08:27:16;2926.67;2926.67;2926.67
72031;PMS5003;49185;42.320;23.198;2023-11-21T08:29:42;2922.67;2922.67;2922.67
72031;PMS5003;49185;42.320;23.198;2023-11-21T08:32:07;2937.50;2937.50;2937.50
72031;PMS5003;49185;42.320;23.198;2023-11-21T08:34:33;2906.33;2906.33;2906.33
72031;PMS5003;49185;42.320;23.198;2023-11-21T08:36:58;2907.67;2907.67;2907.67
72031;PMS5003;49185;42.320;23.198;2023-11-21T08:39:24;2909.00;2909.00;2909.00
72031;PMS5003;49185;42.320;23.198;2023-11-21T08:41:50;2933.33;2933.33;2933.33
72031;PMS5003;49185;42.320;23.198;2023-11-21T08:44:15;2969.00;2969.00;2969.00
72031;PMS5003;49185;42.320;23.198;2023-11-21T08:46:41;2937.33;2937.33;2937.33
72031;PMS5003;49185;42.320;23.198;2023-11-21T08:49:06;2946.33;2946.33;2946.33
72031;PMS5003;49185;42.320;23.198;2023-11-21T08:51:32;2977.00;2977.00;2977.00
72031;PMS5003;49185;42.320;23.198;2023-11-21T08:53:57;2991.33;2991.33;2991.33
72031;PMS5003;49185;42.320;23.198;2023-11-21T08:56:22;2998.33;2998.33;2998.33
72031;PMS5003;49185;42.320;23.198;2023-11-21T08:58:48;3011.33;3011.33;3011.33
72031;PMS5003;49185;42.320;23.198;2023-11-21T09:01:13;3040.67;3040.67;3040.67
72031;PMS5003;49185;42.320;23.198;2023-11-21T09:03:39;3009.67;3009.67;3009.67
72031;PMS5003;49185;42.320;23.198;2023-11-21T09:06:05;3011.33;3011.33;3011.33
72031;PMS5003;49185;42.320;23.198;2023-11-21T09:08:30;3072.00;3072.00;3072.00
72031;PMS5003;49185;42.320;23.198;2023-11-21T09:10:56;3081.00;3081.00;3081.00
72031;PMS5003;49185;42.320;23.198;2023-11-21T09:13:21;3095.00;3095.00;3095.00
72031;PMS5003;49185;42.320;23.198;2023-11-21T09:15:47;3099.33;3099.33;3099.33
72031;PMS5003;49185;42.320;23.198;2023-11-21T09:18:15;3099.33;3099.33;3099.33
72031;PMS5003;49185;42.320;23.198;2023-11-21T09:20:41;3081.00;3081.00;3081.00
72031;PMS5003;49185;42.320;23.198;2023-11-21T09:23:07;3090.00;3090.00;3090.00
72031;PMS5003;49185;42.320;23.198;2023-11-21T09:25:33;3070.67;3070.67;3070.67
72031;PMS5003;49185;42.320;23.198;2023-11-21T09:27:58;3119.67;3119.67;3119.67
72031;PMS5003;49185;42.320;23.198;2023-11-21T09:30:23;3122.33;3122.33;3122.33
72031;PMS5003;49185;42.320;23.198;2023-11-21T09:32:49;3104.33;3104.33;3104.33
72031;PMS5003;49185;42.320;23.198;2023-11-21T09:35:14;3118.33;3118.33;3118.33
72031;PMS5003;49185;42.320;23.198;2023-11-21T09:37:40;3118.33;3118.33;3118.33
72031;PMS5003;49185;42.320;23.198;2023-11-21T09:40:06;3136.67;3136.67;3136.67
72031;PMS5003;49185;42.320;23.198;2023-11-21T09:42:38;3175.50;3175.50;3175.50
72031;PMS5003;49185;42.320;23.198;2023-11-21T09:47:55;3175.50;3175.50;3175.50
72031;PMS5003;49185;42.320;23.198;2023-11-21T09:50:21;3139.50;3139.50;3139.50
72031;PMS5003;49185;42.320;23.198;2023-11-21T09:55:43;3097.50;3097.50;3097.50
72031;PMS5003;49185;42.320;23.198;2023-11-21T09:58:10;3127.00;3127.00;3127.00
72031;PMS5003;49185;42.320;23.198;2023-11-21T10:00:36;3127.00;3127.00;3127.00
72031;PMS5003;49185;42.320;23.198;2023-11-21T10:03:01;3074.67;3074.67;3074.67
72031;PMS5003;49185;42.320;23.198;2023-11-21T10:05:27;3101.00;3101.00;3101.00
72031;PMS5003;49185;42.320;23.198;2023-11-21T10:07:52;3101.00;3101.00;3101.00
72031;PMS5003;49185;42.320;23.198;2023-11-21T10:10:20;3092.50;3092.50;3092.50
72031;PMS5003;49185;42.320;23.198;2023-11-21T10:12:50;3060.50;3060.50;3060.50
72031;PMS5003;49185;42.320;23.198;2023-11-21T10:15:21;3049.50;3049.50;3049.50
72031;PMS5003;49185;42.320;23.198;2023-11-21T10:17:48;3060.50;3060.50;3060.50
72031;PMS5003;49185;42.320;23.198;2023-11-21T10:20:15;3058.50;3058.50;3058.50
72031;PMS5003;49185;42.320;23.198;2023-11-21T10:22:41;3085.50;3085.50;3085.50
72031;PMS5003;49185;42.320;23.198;2023-11-21T10:25:08;3085.50;3085.50;3085.50
72031;PMS5003;49185;42.320;23.198;2023-11-21T10:27:34;3079.00;3079.00;3079.00
72031;PMS5003;49185;42.320;23.198;2023-11-21T10:30:01;3060.50;3060.50;3060.50
72031;PMS5003;49185;42.320;23.198;2023-11-21T10:32:28;3072.00;3072.00;3072.00
72031;PMS5003;49185;42.320;23.198;2023-11-21T10:34:57;3040.50;3040.50;3040.50
72031;PMS5003;49185;42.320;23.198;2023-11-21T10:37:22;3062.50;3062.50;3062.50
72031;PMS5003;49185;42.320;23.198;2023-11-21T10:39:48;3037.33;3037.33;3037.33
72031;PMS5003;49185;42.320;23.198;2023-11-21T10:42:13;3051.33;3051.33;3051.33
72031;PMS5003;49185;42.320;23.198;2023-11-21T10:44:38;3002.33;3002.33;3002.33
72031;PMS5003;49185;42.320;23.198;2023-11-21T10:47:08;3018.50;3018.50;3018.50
72031;PMS5003;49185;42.320;23.198;2023-11-21T10:49:33;3058.50;3058.50;3058.50
72031;PMS5003;49185;42.320;23.198;2023-11-21T10:51:59;3011.33;3011.33;3011.33
72031;PMS5003;49185;42.320;23.198;2023-11-21T10:54:24;3014.00;3014.00;3014.00
72031;PMS5003;49185;42.320;23.198;2023-11-21T10:56:53;3018.50;3018.50;3018.50
72031;PMS5003;49185;42.320;23.198;2023-11-21T10:59:22;2986.00;2986.00;2986.00
72031;PMS5003;49185;42.320;23.198;2023-11-21T11:01:47;3038.50;3038.50;3038.50
72031;PMS5003;49185;42.320;23.198;2023-11-21T11:04:14;3029.50;3029.50;3029.50
72031;PMS5003;49185;42.320;23.198;2023-11-21T11:06:41;3058.50;3058.50;3058.50
72031;PMS5003;49185;42.320;23.198;2023-11-21T11:09:11;3027.50;3027.50;3027.50
72031;PMS5003;49185;42.320;23.198;2023-11-21T11:11:41;3045.00;3045.00;3045.00
72031;PMS5003;49185;42.320;23.198;2023-11-21T11:14:09;3034.00;3034.00;3034.00
72031;PMS5003;49185;42.320;23.198;2023-11-21T11:16:36;3038.50;3038.50;3038.50
72031;PMS5003;49185;42.320;23.198;2023-11-21T11:19:03;3012.00;3012.00;3012.00
72031;PMS5003;49185;42.320;23.198;2023-11-21T11:21:38;2990.00;2990.00;2990.00
72031;PMS5003;49185;42.320;23.198;2023-11-21T11:24:17;3010.00;3010.00;3010.00
72031;PMS5003;49185;42.320;23.198;2023-11-21T11:27:30;2986.00;2986.00;2986.00
72031;PMS5003;49185;42.320;23.198;2023-11-21T11:36:02;2999.00;2999.00;2999.00
72031;PMS5003;49185;42.320;23.198;2023-11-21T11:38:33;2992.50;2992.50;2992.50
72031;PMS5003;49185;42.320;23.198;2023-11-21T11:41:01;2977.50;2977.50;2977.50
72031;PMS5003;49185;42.320;23.198;2023-11-21T11:43:28;3036.00;3036.00;3036.00
72031;PMS5003;49185;42.320;23.198;2023-11-21T11:45:56;3046.33;3046.33;3046.33
72031;PMS5003;49185;42.320;23.198;2023-11-21T11:48:23;3032.00;3032.00;3032.00
72031;PMS5003;49185;42.320;23.198;2023-11-21T11:51:01;3081.00;3081.00;3081.00
72031;PMS5003;49185;42.320;23.198;2023-11-21T11:53:33;3083.00;3083.00;3083.00
72031;PMS5003;49185;42.320;23.198;2023-11-21T11:56:18;3097.00;3097.00;3097.00
72031;PMS5003;49185;42.320;23.198;2023-11-21T11:58:44;3079.00;3079.00;3079.00
72031;PMS5003;49185;42.320;23.198;2023-11-21T12:01:11;3051.33;3051.33;3051.33
72031;PMS5003;49185;42.320;23.198;2023-11-21T12:03:37;3072.00;3072.00;3072.00
72031;PMS5003;49185;42.320;23.198;2023-11-21T12:06:02;3073.67;3073.67;3073.67
72031;PMS5003;49185;42.320;23.198;2023-11-21T12:08:28;3092.50;3092.50;3092.50
72031;PMS5003;49185;42.320;23.198;2023-11-21T12:10:54;3092.50;3092.50;3092.50
72031;PMS5003;49185;42.320;23.198;2023-11-21T12:13:19;3082.67;3082.67;3082.67
72031;PMS5003;49185;42.320;23.198;2023-11-21T12:15:45;3076.50;3076.50;3076.50
72031;PMS5003;49185;42.320;23.198;2023-11-21T12:18:11;3027.33;3027.33;3027.33
72031;PMS5003;49185;42.320;23.198;2023-11-21T12:20:36;3049.67;3049.67;3049.67
72031;PMS5003;49185;42.320;23.198;2023-11-21T12:23:01;3027.67;3027.67;3027.67
72031;PMS5003;49185;42.320;23.198;2023-11-21T12:25:27;3049.67;3049.67;3049.67
72031;PMS5003;49185;42.320;23.198;2023-11-21T12:27:54;3014.00;3014.00;3014.00
72031;PMS5003;49185;42.320;23.198;2023-11-21T12:30:22;3029.50;3029.50;3029.50
72031;PMS5003;49185;42.320;23.198;2023-11-21T12:32:49;3074.00;3074.00;3074.00
72031;PMS5003;49185;42.320;23.198;2023-11-21T12:35:16;3036.00;3036.00;3036.00
72031;PMS5003;49185;42.320;23.198;2023-11-21T12:37:43;3008.00;3008.00;3008.00